Oak Grove, Nebraska
Current Conditions -  °F | °C
As of 8:15 AM on Sunday 21 Dec 2014 (Local Time) from KHDE Reporting Station
Haze Haze  
Wind Chill: 25°   Ceiling: Unl
Heat Index: 33°   Visibility: 5mi
Dew Point: 31°   Wind: 10mph
Humidity: 92%   Direction: 180°S
Pressure: 29.76"   Gusts: NA
Location:  40.1338°N, 99.0101°W
Report Text: KHDE 211415Z AUTO 18009KT 5SM BR SCT100 01/00 A2976 RMK AO2 T00061005
Loading
Personal Weather Stations






























Interactive Weather Map New forecast layout! Learn more

10-Day Weather Forecast

Advertisements
Track Severe Weather on mobile